Time;durP1;ratioP1;P1;durP2;ratioP2;P2;SDS_P1;SDS_P2;PMS_P1;PMS_P2;Temp;Humidity;BMP_temperature;BMP_pressure;BME280_temperature;BME280_humidity;BME280_pressure;Samples;Min_cycle;Max_cycle;Signal;HPM_P1;HPM_P2
2022/05/01 00:01:17;;;;;;;2.13;2.13;;;19.10;65.70;;;;;;5107353;27;46291;-71
2022/05/01 00:03:45;;;;;;;2.20;2.20;;;19.30;65.40;;;;;;5126210;27;43539;-72
2022/05/01 00:06:13;;;;;;;2.60;2.50;;;19.30;65.00;;;;;;5126661;27;43985;-72
2022/05/01 00:08:43;;;;;;;2.30;2.30;;;19.30;64.80;;;;;;5130062;27;43946;-72
2022/05/01 00:11:11;;;;;;;2.40;2.40;;;19.30;64.80;;;;;;5129896;27;43750;-72
2022/05/01 00:13:43;;;;;;;2.40;2.40;;;19.20;64.90;;;;;;5129650;27;43874;-72
2022/05/01 00:16:11;;;;;;;2.47;2.47;;;19.20;65.10;;;;;;5129405;27;44030;-72
2022/05/01 00:18:40;;;;;;;2.27;2.27;;;19.10;65.20;;;;;;5129774;27;43390;-72
2022/05/01 00:21:07;;;;;;;2.63;2.63;;;19.10;65.40;;;;;;5129354;27;43994;-72
2022/05/01 00:23:35;;;;;;;2.40;2.40;;;19.10;65.60;;;;;;5128765;27;43404;-72
2022/05/01 00:26:05;;;;;;;2.57;2.57;;;19.00;65.60;;;;;;5129412;27;44006;-72
2022/05/01 00:28:33;;;;;;;2.47;2.43;;;19.00;65.70;;;;;;5129680;27;43999;-73
2022/05/01 00:31:02;;;;;;;2.50;2.50;;;19.00;65.80;;;;;;5129409;27;44005;-72
2022/05/01 00:36:27;;;;;;;2.43;2.43;;;19.20;65.80;;;;;;5129444;27;43928;-72
2022/05/01 00:38:55;;;;;;;2.40;2.40;;;19.40;65.20;;;;;;5129613;27;43975;-72
2022/05/01 00:41:27;;;;;;;2.50;2.40;;;19.60;64.60;;;;;;5128848;27;44018;-72
2022/05/01 00:44:03;;;;;;;2.47;2.37;;;19.80;64.20;;;;;;5128975;27;43826;-72
2022/05/01 00:46:32;;;;;;;2.30;2.30;;;19.80;63.80;;;;;;5128904;27;43999;-71
2022/05/01 00:49:01;;;;;;;2.30;2.30;;;19.70;63.80;;;;;;5129487;27;43912;-73
2022/05/01 00:51:30;;;;;;;2.60;2.60;;;19.60;64.00;;;;;;5109842;27;46113;-72
2022/05/01 00:53:58;;;;;;;2.60;2.60;;;19.50;64.10;;;;;;5129045;27;43441;-72
2022/05/01 00:56:27;;;;;;;2.60;2.60;;;19.40;64.40;;;;;;5128562;27;44057;-72
2022/05/01 00:58:55;;;;;;;2.90;2.80;;;19.30;64.70;;;;;;5129538;27;43979;-72
2022/05/01 01:01:23;;;;;;;2.47;2.47;;;19.20;64.80;;;;;;5110207;27;45816;-71
2022/05/01 01:03:53;;;;;;;2.50;2.50;;;19.20;65.00;;;;;;5129066;27;44025;-71
2022/05/01 01:06:21;;;;;;;2.80;2.80;;;19.10;65.50;;;;;;5128549;27;44428;-72
2022/05/01 01:08:49;;;;;;;2.57;2.53;;;19.20;65.70;;;;;;5129460;27;43366;-71
2022/05/01 01:11:17;;;;;;;2.70;2.60;;;19.30;65.30;;;;;;5128394;27;43948;-71
2022/05/01 01:13:47;;;;;;;2.73;2.73;;;19.40;64.80;;;;;;5128300;27;43343;-71
2022/05/01 01:16:15;;;;;;;2.50;2.50;;;19.50;64.60;;;;;;5128384;27;43743;-71
2022/05/01 01:18:43;;;;;;;2.33;2.33;;;19.40;64.40;;;;;;5128228;27;44060;-71
2022/05/01 01:21:12;;;;;;;2.60;2.60;;;19.40;64.60;;;;;;5109885;27;45903;-71
2022/05/01 01:23:41;;;;;;;2.60;2.60;;;19.30;65.40;;;;;;5128122;27;43931;-71
2022/05/01 01:26:09;;;;;;;2.60;2.60;;;19.20;64.80;;;;;;5128333;27;44005;-72
2022/05/01 01:28:38;;;;;;;2.50;2.50;;;19.20;65.00;;;;;;5128448;27;43968;-72
2022/05/01 01:33:53;;;;;;;2.40;2.40;;;19.10;65.30;;;;;;5123672;27;44077;-71
2022/05/01 01:36:23;;;;;;;2.70;2.70;;;19.10;65.50;;;;;;5128146;27;43919;-70
2022/05/01 01:38:51;;;;;;;2.43;2.43;;;19.10;65.50;;;;;;5129422;27;43946;-71
2022/05/01 01:41:21;;;;;;;2.90;2.80;;;19.00;65.80;;;;;;5127747;27;43908;-71
2022/05/01 01:43:49;;;;;;;2.47;2.47;;;19.10;65.70;;;;;;5128208;27;43928;-71
2022/05/01 01:46:17;;;;;;;2.50;2.50;;;19.30;65.30;;;;;;5127948;27;43285;-72
2022/05/01 01:48:46;;;;;;;2.60;2.60;;;19.50;64.80;;;;;;5128498;27;43410;-72
2022/05/01 01:51:16;;;;;;;2.63;2.63;;;19.60;64.20;;;;;;5109295;27;45848;-72
2022/05/01 01:53:45;;;;;;;2.70;2.70;;;19.70;64.00;;;;;;5127052;27;43933;-71
2022/05/01 01:56:13;;;;;;;2.60;2.60;;;19.60;63.90;;;;;;5128144;27;43552;-71
2022/05/01 01:58:41;;;;;;;2.40;2.40;;;19.60;64.00;;;;;;5128183;27;43954;-72
2022/05/01 02:01:10;;;;;;;2.67;2.67;;;19.50;64.10;;;;;;5109544;27;46016;-72
2022/05/01 02:03:38;;;;;;;2.50;2.50;;;19.40;64.40;;;;;;5127520;27;43998;-71
2022/05/01 02:06:09;;;;;;;2.77;2.77;;;19.30;64.60;;;;;;5109247;27;43909;-71
2022/05/01 02:08:37;;;;;;;2.80;2.80;;;19.20;64.70;;;;;;5127607;27;43464;-73
2022/05/01 02:11:06;;;;;;;2.90;2.80;;;19.20;65.00;;;;;;5108716;27;45654;-72
2022/05/01 02:13:37;;;;;;;2.93;2.83;;;19.10;65.10;;;;;;5127143;27;43417;-72
2022/05/01 02:16:05;;;;;;;2.83;2.83;;;19.10;65.60;;;;;;5127658;27;43400;-71
2022/05/01 02:18:33;;;;;;;2.80;2.80;;;19.20;65.60;;;;;;5128094;27;43815;-71
2022/05/01 02:23:58;;;;;;;2.80;2.70;;;19.50;64.60;;;;;;5063519;28;44040;-72
2022/05/01 02:26:29;;;;;;;3.07;2.97;;;19.60;64.30;;;;;;5111686;27;43868;-72
2022/05/01 02:28:57;;;;;;;2.50;2.50;;;19.50;64.20;;;;;;5127135;27;43674;-72
2022/05/01 02:31:26;;;;;;;2.83;2.83;;;19.40;64.20;;;;;;5126864;27;45006;-72
2022/05/01 02:33:54;;;;;;;2.77;2.77;;;19.30;64.40;;;;;;5127109;27;44001;-71
2022/05/01 02:36:22;;;;;;;2.70;2.70;;;19.30;64.70;;;;;;5127180;27;43970;-71
2022/05/01 02:38:50;;;;;;;2.83;2.73;;;19.20;64.90;;;;;;5127844;27;43535;-71
2022/05/01 02:41:18;;;;;;;2.90;2.80;;;19.10;65.00;;;;;;5127188;27;43969;-71
2022/05/01 02:43:48;;;;;;;3.03;2.93;;;19.10;65.20;;;;;;5127391;27;43969;-71
2022/05/01 02:46:16;;;;;;;2.70;2.70;;;19.10;65.30;;;;;;5127644;27;43414;-71
2022/05/01 02:48:44;;;;;;;2.80;2.80;;;19.00;65.60;;;;;;5108972;27;43954;-71
2022/05/01 02:51:12;;;;;;;2.80;2.73;;;19.10;65.70;;;;;;5127269;27;43929;-71
2022/05/01 02:53:40;;;;;;;3.13;3.03;;;19.20;65.40;;;;;;5126456;27;43946;-71
2022/05/01 02:56:09;;;;;;;2.50;2.50;;;19.40;64.90;;;;;;5127245;27;43888;-71
2022/05/01 02:58:37;;;;;;;2.50;2.50;;;19.60;64.40;;;;;;5127210;27;43962;-71
2022/05/01 03:01:06;;;;;;;2.50;2.50;;;19.60;64.10;;;;;;5127017;27;44218;-71
2022/05/01 03:03:34;;;;;;;2.90;2.80;;;19.60;64.10;;;;;;5107876;27;44858;-71
2022/05/01 03:06:02;;;;;;;2.67;2.67;;;19.50;64.10;;;;;;5108197;27;44019;-71
2022/05/01 03:08:30;;;;;;;2.90;2.90;;;19.40;64.30;;;;;;5126729;27;43923;-72
2022/05/01 03:10:57;;;;;;;2.73;2.63;;;19.30;64.60;;;;;;5127054;27;44215;-71
2022/05/01 03:13:25;;;;;;;2.53;2.50;;;19.20;64.70;;;;;;5126243;27;43427;-71
2022/05/01 03:15:54;;;;;;;2.73;2.73;;;19.10;65.00;;;;;;5126980;27;43973;-72
2022/05/01 03:23:53;;;;;;;3.50;3.20;;;19.10;65.80;;;;;;5126938;27;43939;-72
2022/05/01 03:26:21;;;;;;;3.57;3.27;;;19.20;65.50;;;;;;5126551;27;43402;-72
2022/05/01 03:28:52;;;;;;;6.73;4.07;;;19.30;65.10;;;;;;5127412;27;43335;-71
2022/05/01 03:31:20;;;;;;;4.37;3.97;;;19.30;64.70;;;;;;5126358;27;43595;-71
2022/05/01 03:33:49;;;;;;;4.43;4.03;;;19.30;64.70;;;;;;5125966;27;44007;-71
2022/05/01 03:36:17;;;;;;;7.20;4.50;;;19.30;64.70;;;;;;5126335;27;43954;-71
2022/05/01 03:38:45;;;;;;;5.13;4.67;;;19.20;64.90;;;;;;5127102;27;43906;-71
2022/05/01 03:41:18;;;;;;;5.63;4.73;;;19.10;65.10;;;;;;5128530;27;44008;-71
2022/05/01 03:43:46;;;;;;;7.80;5.40;;;19.10;65.30;;;;;;5130185;27;43815;-71
2022/05/01 03:46:14;;;;;;;7.07;5.13;;;19.10;65.50;;;;;;5130358;27;44066;-72
2022/05/01 03:48:42;;;;;;;7.67;5.00;;;19.00;65.60;;;;;;5130150;27;44001;-72
2022/05/01 03:51:12;;;;;;;7.43;5.47;;;18.90;65.60;;;;;;5111200;27;47257;-72
2022/05/01 03:53:40;;;;;;;8.07;5.53;;;18.90;65.70;;;;;;5129296;27;44128;-71
2022/05/01 03:56:08;;;;;;;14.13;7.00;;;18.90;66.20;;;;;;5130280;27;43900;-71
2022/05/01 03:58:36;;;;;;;9.03;5.60;;;19.10;66.00;;;;;;5129608;27;43940;-72
2022/05/01 04:01:04;;;;;;;12.83;6.57;;;19.20;65.60;;;;;;5130190;27;44032;-71
2022/05/01 04:03:35;;;;;;;8.27;5.80;;;19.40;65.10;;;;;;5129454;27;44010;-71
2022/05/01 04:06:03;;;;;;;10.63;5.73;;;19.60;64.50;;;;;;5111191;27;43434;-71
2022/05/01 04:08:33;;;;;;;9.03;6.40;;;19.70;64.00;;;;;;5130454;27;43983;-71
2022/05/01 04:11:02;;;;;;;11.20;6.07;;;19.70;63.90;;;;;;5129609;27;44151;-72
2022/05/01 04:13:30;;;;;;;8.57;5.87;;;19.60;63.80;;;;;;5129027;27;44189;-71
2022/05/01 04:15:58;;;;;;;9.43;5.80;;;19.50;63.90;;;;;;5129820;27;43950;-72
2022/05/01 04:18:26;;;;;;;9.90;6.10;;;19.40;64.20;;;;;;5110755;27;43901;-72
2022/05/01 04:20:54;;;;;;;8.20;6.00;;;19.30;64.40;;;;;;5129348;27;44350;-72
2022/05/01 04:23:22;;;;;;;10.67;5.90;;;19.20;64.60;;;;;;5129145;27;44052;-71
2022/05/01 04:25:51;;;;;;;6.67;5.63;;;19.20;64.90;;;;;;5130556;27;43891;-71
2022/05/01 04:28:19;;;;;;;9.83;5.80;;;19.10;65.10;;;;;;5130341;27;44068;-72
2022/05/01 04:30:50;;;;;;;10.93;7.10;;;19.10;65.60;;;;;;5129869;27;44113;-72
2022/05/01 04:33:18;;;;;;;10.13;6.07;;;19.20;65.40;;;;;;5110652;27;45141;-72
2022/05/01 04:35:47;;;;;;;12.20;6.67;;;19.30;64.90;;;;;;5130088;27;43931;-71
2022/05/01 04:38:15;;;;;;;10.70;6.30;;;19.40;64.70;;;;;;5130431;27;43737;-72
2022/05/01 04:40:45;;;;;;;8.13;5.83;;;19.40;64.50;;;;;;5111149;27;45951;-72
2022/05/01 04:43:17;;;;;;;9.20;5.87;;;19.30;64.50;;;;;;5111069;27;45240;-71
2022/05/01 04:45:45;;;;;;;7.93;5.60;;;19.20;64.60;;;;;;5129834;27;43934;-71
2022/05/01 04:48:13;;;;;;;8.70;5.73;;;19.20;65.00;;;;;;5130202;27;44006;-71
2022/05/01 04:50:41;;;;;;;9.27;5.80;;;19.10;65.10;;;;;;5129350;27;45030;-71
2022/05/01 04:53:14;;;;;;;8.53;6.00;;;19.10;65.30;;;;;;5128632;27;43967;-71
2022/05/01 04:55:42;;;;;;;9.90;6.17;;;19.00;65.60;;;;;;5129564;27;43832;-71
2022/05/01 04:58:11;;;;;;;6.97;5.40;;;19.00;65.60;;;;;;5130067;27;44021;-71
2022/05/01 05:00:40;;;;;;;8.57;6.13;;;18.90;65.50;;;;;;5122232;27;44972;-71
2022/05/01 05:03:08;;;;;;;7.53;6.20;;;18.90;65.90;;;;;;5122957;27;44251;-71
2022/05/01 05:05:36;;;;;;;7.03;5.63;;;19.00;65.90;;;;;;5122608;27;43946;-71
2022/05/01 05:10:50;;;;;;;6.97;5.87;;;19.40;65.00;;;;;;5125850;27;43905;-72
2022/05/01 05:13:25;;;;;;;8.07;5.57;;;19.60;64.40;;;;;;5110319;27;44370;-71
2022/05/01 05:15:57;;;;;;;6.67;5.50;;;19.60;64.10;;;;;;5129323;27;43947;-71
2022/05/01 05:18:25;;;;;;;6.13;5.10;;;19.50;64.00;;;;;;5129531;27;43859;-72
2022/05/01 05:20:53;;;;;;;6.03;5.07;;;19.40;64.10;;;;;;5129002;27;43917;-73
2022/05/01 05:23:21;;;;;;;6.90;5.27;;;19.30;64.40;;;;;;5128772;27;43965;-72
2022/05/01 05:25:49;;;;;;;5.47;4.97;;;19.20;64.60;;;;;;5129542;27;43655;-72
2022/05/01 05:28:18;;;;;;;5.77;5.17;;;19.20;65.00;;;;;;5129586;27;43908;-71
2022/05/01 05:30:48;;;;;;;5.87;5.37;;;19.10;65.10;;;;;;5128744;27;44073;-71
2022/05/01 05:33:18;;;;;;;5.37;4.87;;;19.10;65.30;;;;;;5128831;27;43999;-71
2022/05/01 05:35:46;;;;;;;7.87;5.80;;;19.00;65.50;;;;;;5109971;27;43925;-72
2022/05/01 05:38:14;;;;;;;5.90;5.20;;;19.10;65.80;;;;;;5129425;27;43820;-72
2022/05/01 05:40:41;;;;;;;7.17;5.53;;;19.20;65.60;;;;;;5128593;27;43948;-71
2022/05/01 05:43:09;;;;;;;6.07;5.47;;;19.30;65.30;;;;;;5128753;27;44156;-71
2022/05/01 05:45:37;;;;;;;5.60;5.03;;;19.30;64.80;;;;;;5128351;27;43783;-72
2022/05/01 05:48:06;;;;;;;4.83;4.47;;;19.30;64.70;;;;;;5110431;27;43979;-72
2022/05/01 05:50:35;;;;;;;5.50;4.97;;;19.20;64.60;;;;;;5109565;27;45659;-71
2022/05/01 05:53:03;;;;;;;5.50;5.00;;;19.20;64.90;;;;;;5128328;27;43864;-72
2022/05/01 05:55:33;;;;;;;5.20;4.70;;;19.10;65.10;;;;;;5127732;27;43926;-72
2022/05/01 05:58:01;;;;;;;5.30;4.90;;;19.00;65.20;;;;;;5110661;27;44042;-71
2022/05/01 06:00:29;;;;;;;6.53;5.07;;;19.00;65.40;;;;;;5128234;27;43970;-72
2022/05/01 06:02:59;;;;;;;6.10;5.43;;;19.00;65.50;;;;;;5128421;27;43339;-71
2022/05/01 06:05:27;;;;;;;6.23;5.53;;;18.90;65.50;;;;;;5126912;27;43995;-71
2022/05/01 06:07:56;;;;;;;5.60;5.10;;;18.90;65.60;;;;;;5128879;27;44045;-72
2022/05/01 06:10:24;;;;;;;6.43;5.03;;;18.90;66.00;;;;;;5128420;27;43889;-71
2022/05/01 06:12:52;;;;;;;5.30;4.47;;;19.00;65.80;;;;;;5128585;27;44069;-72
2022/05/01 06:15:20;;;;;;;5.93;4.77;;;19.20;65.50;;;;;;5127865;27;43757;-71
2022/05/01 06:17:49;;;;;;;5.80;4.63;;;19.40;64.90;;;;;;5128447;27;43807;-72
2022/05/01 06:20:18;;;;;;;6.03;5.07;;;19.60;64.40;;;;;;5108812;27;47230;-71
2022/05/01 06:22:46;;;;;;;5.40;4.87;;;19.60;64.10;;;;;;5128284;27;43895;-72
2022/05/01 06:25:17;;;;;;;5.57;5.07;;;19.60;64.00;;;;;;5128194;27;44252;-71
2022/05/01 06:27:45;;;;;;;5.67;4.90;;;19.50;64.00;;;;;;5128634;27;43896;-72
2022/05/01 06:30:14;;;;;;;5.00;4.50;;;19.40;64.20;;;;;;5121556;27;43958;-71
2022/05/01 06:32:42;;;;;;;4.80;4.40;;;19.30;64.50;;;;;;5121169;27;43927;-72
2022/05/01 06:35:10;;;;;;;4.60;4.30;;;19.20;64.70;;;;;;5127441;27;43879;-71
2022/05/01 06:37:38;;;;;;;5.13;4.57;;;19.10;64.90;;;;;;5121468;27;43419;-72
2022/05/01 06:40:07;;;;;;;5.43;4.90;;;19.10;65.10;;;;;;5121470;27;43965;-71
2022/05/01 06:42:36;;;;;;;4.77;4.47;;;19.10;65.60;;;;;;5121267;27;43893;-71
2022/05/01 06:45:05;;;;;;;4.47;4.07;;;19.10;65.70;;;;;;5121708;27;44029;-71
2022/05/01 06:47:33;;;;;;;5.27;4.73;;;19.20;65.30;;;;;;5109421;27;43526;-72
2022/05/01 06:50:00;;;;;;;5.37;4.73;;;19.30;65.00;;;;;;5108853;27;47413;-72
2022/05/01 06:52:28;;;;;;;4.47;4.17;;;19.30;64.80;;;;;;5127359;27;43961;-70
2022/05/01 06:54:56;;;;;;;4.87;4.47;;;19.20;64.60;;;;;;5109028;27;44064;-71
2022/05/01 06:57:25;;;;;;;4.83;4.33;;;19.20;64.80;;;;;;5127679;27;43998;-71
2022/05/01 06:59:55;;;;;;;4.77;4.37;;;19.10;65.00;;;;;;5127770;27;43803;-71
2022/05/01 07:02:22;;;;;;;4.80;4.40;;;19.10;65.30;;;;;;5108745;27;46237;-71
2022/05/01 07:04:51;;;;;;;4.60;4.27;;;19.00;65.30;;;;;;5127901;27;44178;-71
2022/05/01 07:07:19;;;;;;;4.77;4.30;;;19.00;65.40;;;;;;5127167;27;44205;-72
2022/05/01 07:09:47;;;;;;;4.90;4.50;;;18.90;65.50;;;;;;5127434;27;43986;-72
2022/05/01 07:12:15;;;;;;;5.10;4.60;;;18.90;65.60;;;;;;5127119;27;43887;-71
2022/05/01 07:14:44;;;;;;;4.83;4.43;;;18.90;65.90;;;;;;5108535;27;44002;-72
2022/05/01 07:17:13;;;;;;;4.87;4.47;;;19.00;66.00;;;;;;5131190;27;43501;-71
2022/05/01 07:19:41;;;;;;;5.03;4.53;;;19.10;65.60;;;;;;5111984;27;46644;-71
2022/05/01 07:22:10;;;;;;;4.83;4.43;;;19.30;65.10;;;;;;5130861;27;43988;-71
2022/05/01 07:24:40;;;;;;;5.07;4.57;;;19.50;64.60;;;;;;5130756;27;43959;-71
2022/05/01 07:27:08;;;;;;;4.77;4.37;;;19.60;64.10;;;;;;5112622;27;43460;-71
2022/05/01 07:29:36;;;;;;;4.53;4.30;;;19.60;63.90;;;;;;5111842;27;45730;-71
2022/05/01 07:32:04;;;;;;;5.13;4.73;;;19.50;63.90;;;;;;5130899;27;43925;-71
2022/05/01 07:34:35;;;;;;;4.60;4.20;;;19.40;64.00;;;;;;5111398;27;43939;-72
2022/05/01 07:37:05;;;;;;;4.60;4.20;;;19.30;64.30;;;;;;5131121;27;44069;-70
2022/05/01 07:39:33;;;;;;;4.63;4.30;;;19.20;64.60;;;;;;5130519;27;43778;-72
2022/05/01 07:42:01;;;;;;;4.60;4.30;;;19.20;65.00;;;;;;5130544;27;43320;-72
2022/05/01 07:44:29;;;;;;;4.87;4.47;;;19.10;65.10;;;;;;5130605;27;44005;-71
2022/05/01 07:46:57;;;;;;;4.50;4.10;;;19.10;65.50;;;;;;5131018;27;44171;-71
2022/05/01 07:49:25;;;;;;;4.37;4.13;;;19.00;65.70;;;;;;5130530;27;43895;-71
2022/05/01 07:51:56;;;;;;;4.20;4.00;;;19.10;66.00;;;;;;5111838;27;45279;-71
2022/05/01 07:54:24;;;;;;;4.77;4.40;;;19.20;65.60;;;;;;5111501;27;44006;-72
2022/05/01 07:56:52;;;;;;;3.97;3.67;;;19.30;65.10;;;;;;5130914;27;44005;-72
2022/05/01 07:59:20;;;;;;;4.50;4.20;;;19.30;64.80;;;;;;5111273;27;45651;-72
2022/05/01 08:01:48;;;;;;;4.30;4.10;;;19.20;64.70;;;;;;5111282;27;45517;-71
2022/05/01 08:04:32;;;;;;;5.00;4.63;;;19.20;64.90;;;;;;5130156;27;43963;-72
2022/05/01 08:07:02;;;;;;;4.17;3.90;;;19.10;65.10;;;;;;5130666;27;43585;-71
2022/05/01 08:09:30;;;;;;;4.17;3.93;;;19.10;65.30;;;;;;5129855;27;44812;-72
2022/05/01 08:11:58;;;;;;;4.20;4.00;;;19.00;65.40;;;;;;5130319;27;43859;-71
2022/05/01 08:14:26;;;;;;;4.40;4.20;;;18.90;65.50;;;;;;5111217;27;44160;-71
2022/05/01 08:16:54;;;;;;;4.17;3.90;;;18.90;65.60;;;;;;5130218;27;44515;-71
2022/05/01 08:22:09;;;;;;;4.27;4.07;;;18.90;65.80;;;;;;5130077;27;43868;-71
2022/05/01 08:24:37;;;;;;;4.80;4.53;;;18.90;66.00;;;;;;5129854;27;43995;-71
2022/05/01 08:27:06;;;;;;;4.40;4.10;;;19.10;65.80;;;;;;5110608;27;44086;-72
2022/05/01 08:29:36;;;;;;;4.30;4.10;;;19.20;65.00;;;;;;5129855;27;43892;-71
2022/05/01 08:32:06;;;;;;;4.27;3.97;;;19.40;64.50;;;;;;5110608;27;44984;-71
2022/05/01 08:34:33;;;;;;;4.37;4.17;;;19.50;64.00;;;;;;5129116;27;44090;-71
2022/05/01 08:37:02;;;;;;;6.23;4.47;;;19.50;63.90;;;;;;5130143;27;44117;-71
2022/05/01 08:39:34;;;;;;;4.73;4.23;;;19.50;64.00;;;;;;5129405;27;44822;-71
2022/05/01 08:42:02;;;;;;;4.13;3.93;;;19.30;64.00;;;;;;5129916;27;43931;-71
2022/05/01 08:44:32;;;;;;;3.53;3.43;;;19.20;64.30;;;;;;5129192;27;43947;-71
2022/05/01 08:47:23;;;;;;;3.53;3.43;;;19.20;64.60;;;;;;5130368;27;43949;-71
2022/05/01 08:49:54;;;;;;;4.13;3.80;;;19.10;64.90;;;;;;5124663;27;43926;-72
2022/05/01 08:52:22;;;;;;;3.93;3.73;;;19.00;65.00;;;;;;5122583;27;43959;-71
2022/05/01 08:54:52;;;;;;;4.10;3.70;;;19.00;65.20;;;;;;5123086;27;43500;-71
2022/05/01 08:57:21;;;;;;;4.20;3.83;;;18.90;65.50;;;;;;5123398;27;43927;-71
2022/05/01 08:59:52;;;;;;;4.17;3.97;;;19.00;65.60;;;;;;5123050;27;45139;-71
2022/05/01 09:02:20;;;;;;;3.97;3.67;;;19.20;65.30;;;;;;5129261;27;43315;-71
2022/05/01 09:04:48;;;;;;;4.00;3.70;;;19.20;64.70;;;;;;5129305;27;43954;-72
2022/05/01 09:07:16;;;;;;;3.60;3.50;;;19.20;64.50;;;;;;5129520;27;43944;-71
2022/05/01 09:09:44;;;;;;;3.50;3.40;;;19.20;64.60;;;;;;5129178;27;43962;-73
2022/05/01 09:14:59;;;;;;;3.80;3.60;;;19.10;64.90;;;;;;5110329;27;44013;-71
2022/05/01 09:17:27;;;;;;;3.93;3.70;;;19.00;65.10;;;;;;5129288;27;43462;-71
2022/05/01 09:20:06;;;;;;;4.10;3.80;;;19.00;65.30;;;;;;5129058;27;43912;-71
2022/05/01 09:22:47;;;;;;;3.77;3.57;;;18.90;65.40;;;;;;5128642;27;43961;-72
2022/05/01 09:25:16;;;;;;;3.70;3.60;;;18.90;65.50;;;;;;5122514;27;43991;-71
2022/05/01 09:27:45;;;;;;;3.50;3.40;;;18.80;65.50;;;;;;5122869;27;44026;-71
2022/05/01 09:30:15;;;;;;;3.90;3.70;;;18.80;65.80;;;;;;5122504;27;43968;-72
2022/05/01 09:32:44;;;;;;;3.33;3.23;;;18.90;65.90;;;;;;5128761;27;43979;-73
2022/05/01 09:35:16;;;;;;;3.43;3.33;;;19.10;65.60;;;;;;5110074;27;43986;-71
2022/05/01 09:37:44;;;;;;;3.37;3.27;;;19.30;65.10;;;;;;5129454;27;43860;-72
2022/05/01 09:40:13;;;;;;;3.20;3.00;;;19.50;64.60;;;;;;5128563;27;43875;-71
2022/05/01 09:42:41;;;;;;;3.20;3.10;;;19.60;64.10;;;;;;5128437;27;44097;-71
2022/05/01 09:45:13;;;;;;;3.50;3.30;;;19.60;63.80;;;;;;5110200;27;44017;-73
2022/05/01 09:47:41;;;;;;;3.90;3.60;;;19.50;63.90;;;;;;5129000;27;43990;-72
2022/05/01 09:50:10;;;;;;;3.50;3.40;;;19.40;64.00;;;;;;5128475;27;44016;-72
2022/05/01 09:52:58;;;;;;;4.33;4.03;;;19.30;64.20;;;;;;5128405;27;43431;-73
2022/05/01 09:55:26;;;;;;;5.07;4.70;;;19.20;63.90;;;;;;5109524;27;43960;-71
2022/05/01 09:58:08;;;;;;;9.07;5.20;;;19.10;63.30;;;;;;5129252;27;44053;-71
2022/05/01 10:00:47;;;;;;;6.27;5.40;;;19.00;62.70;;;;;;5121733;27;43957;-71
2022/05/01 10:03:26;;;;;;;8.30;5.80;;;18.90;62.40;;;;;;5104467;27;45404;-72
2022/05/01 10:05:55;;;;;;;8.60;5.83;;;18.90;61.50;;;;;;5128654;27;43338;-71
2022/05/01 10:08:23;;;;;;;11.30;5.80;;;18.90;62.30;;;;;;5128820;27;43942;-72
2022/05/01 10:10:52;;;;;;;6.53;5.50;;;19.10;62.40;;;;;;5128383;27;43837;-72
2022/05/01 10:13:20;;;;;;;6.10;5.33;;;19.10;62.00;;;;;;5127983;27;43934;-72
2022/05/01 10:16:07;;;;;;;11.13;5.57;;;19.10;61.80;;;;;;5128272;27;44017;-71
2022/05/01 10:18:35;;;;;;;5.67;4.77;;;19.00;61.90;;;;;;5128525;27;43453;-71
2022/05/01 10:21:04;;;;;;;5.63;4.57;;;19.00;62.20;;;;;;5127754;27;43957;-72
2022/05/01 10:23:32;;;;;;;5.30;4.90;;;18.90;62.40;;;;;;5127696;27;44050;-71
2022/05/01 10:26:02;;;;;;;6.23;4.60;;;18.80;62.60;;;;;;5128460;27;44010;-71
2022/05/01 10:29:02;;;;;;;4.93;4.53;;;18.80;62.80;;;;;;5128824;27;43898;-72
2022/05/01 10:32:21;;;;;;;6.63;4.83;;;18.80;63.10;;;;;;5127705;27;44027;-71
2022/05/01 10:35:37;;;;;;;4.77;4.27;;;18.80;63.30;;;;;;5127787;27;44021;-72
2022/05/01 10:38:10;;;;;;;9.83;4.70;;;18.70;63.40;;;;;;5124881;27;43939;-71
2022/05/01 10:40:42;;;;;;;7.10;4.57;;;18.70;63.70;;;;;;5128264;27;43896;-72
2022/05/01 10:43:23;;;;;;;6.23;4.00;;;18.90;63.90;;;;;;5127772;27;44510;-72
2022/05/01 10:45:53;;;;;;;6.30;4.13;;;19.10;63.60;;;;;;5128051;27;43358;-72
2022/05/01 10:48:36;;;;;;;4.40;4.10;;;19.20;63.10;;;;;;5108967;27;43900;-72
2022/05/01 10:51:41;;;;;;;4.50;4.10;;;19.40;62.70;;;;;;5127606;27;43413;-71
2022/05/01 10:54:32;;;;;;;8.03;4.70;;;19.40;62.30;;;;;;5127878;27;44130;-71
2022/05/01 10:57:11;;;;;;;4.30;4.10;;;19.30;62.30;;;;;;5127982;27;44039;-72
2022/05/01 10:59:42;;;;;;;4.67;4.40;;;19.20;62.70;;;;;;5127527;27;44034;-72
2022/05/01 11:02:25;;;;;;;5.37;4.77;;;19.10;62.40;;;;;;5128874;27;43950;-72
2022/05/01 11:04:55;;;;;;;7.53;5.77;;;19.00;61.90;;;;;;5127843;27;45201;-72
2022/05/01 11:07:25;;;;;;;6.10;5.50;;;18.90;61.40;;;;;;5127443;27;43982;-72
2022/05/01 11:09:54;;;;;;;6.63;6.27;;;18.90;61.10;;;;;;5127858;27;44063;-71
2022/05/01 11:12:22;;;;;;;7.17;6.43;;;18.80;60.70;;;;;;5128041;27;43889;-71
2022/05/01 11:14:51;;;;;;;10.30;9.23;;;18.80;59.40;;;;;;5108606;27;45917;-72
2022/05/01 11:17:56;;;;;;;11.30;10.10;;;18.90;58.40;;;;;;5127210;27;44044;-71
2022/05/01 11:20:35;;;;;;;8.87;8.07;;;19.00;57.80;;;;;;5127200;27;43949;-72
2022/05/01 11:23:29;;;;;;;8.57;7.80;;;19.10;57.30;;;;;;5127610;27;44016;-72
2022/05/01 11:26:17;;;;;;;9.57;7.93;;;19.10;57.60;;;;;;5127237;27;44030;-72
2022/05/01 11:28:54;;;;;;;7.20;6.60;;;19.00;58.20;;;;;;5127228;27;43988;-72
2022/05/01 11:31:42;;;;;;;6.37;5.97;;;18.90;58.30;;;;;;5108772;27;43386;-71
2022/05/01 11:34:50;;;;;;;6.73;6.13;;;18.90;58.50;;;;;;5108623;27;43416;-72
2022/05/01 11:37:20;;;;;;;6.37;5.97;;;18.80;58.60;;;;;;5126774;27;44010;-71
2022/05/01 11:40:15;;;;;;;6.20;5.80;;;18.80;58.80;;;;;;5127248;27;44058;-72
2022/05/01 11:42:43;;;;;;;6.10;5.63;;;18.70;58.90;;;;;;5127113;27;44046;-71
2022/05/01 11:45:11;;;;;;;6.50;6.10;;;18.70;59.60;;;;;;5127543;27;43950;-72
2022/05/01 11:47:40;;;;;;;7.47;5.40;;;18.70;59.40;;;;;;5126473;27;44788;-72
2022/05/01 11:50:16;;;;;;;6.10;5.70;;;18.70;59.10;;;;;;5108246;27;46102;-72
2022/05/01 11:52:49;;;;;;;6.57;5.33;;;18.90;58.80;;;;;;5108129;27;43325;-71
2022/05/01 11:55:19;;;;;;;5.43;5.10;;;19.00;58.20;;;;;;5108295;27;43554;-71
2022/05/01 12:03:30;;;;;;;4.93;4.53;;;19.00;57.80;;;;;;5129792;27;44303;-71
2022/05/01 12:05:58;;;;;;;4.50;4.30;;;19.00;58.00;;;;;;5130883;27;44101;-73
2022/05/01 12:08:28;;;;;;;5.20;4.90;;;18.90;58.00;;;;;;5129517;27;44871;-72
2022/05/01 12:10:56;;;;;;;4.70;4.40;;;18.80;58.00;;;;;;5130332;27;43860;-71
2022/05/01 12:13:24;;;;;;;4.57;4.37;;;18.80;58.10;;;;;;5130275;27;43936;-72
2022/05/01 12:15:52;;;;;;;4.47;4.30;;;18.70;58.20;;;;;;5130650;27;43908;-71
2022/05/01 12:18:23;;;;;;;4.90;4.60;;;18.70;58.30;;;;;;5129875;27;43958;-71
2022/05/01 12:20:51;;;;;;;6.70;4.37;;;18.70;59.10;;;;;;5130243;27;43940;-71
2022/05/01 12:23:20;;;;;;;5.20;4.87;;;18.70;58.90;;;;;;5129865;27;43962;-71
2022/05/01 12:25:52;;;;;;;5.30;4.80;;;18.80;58.50;;;;;;5130520;27;43352;-72
2022/05/01 12:28:20;;;;;;;5.37;5.07;;;18.90;58.40;;;;;;5129898;27;44259;-71
2022/05/01 12:30:52;;;;;;;4.80;4.50;;;18.90;58.20;;;;;;5130075;27;44070;-72
2022/05/01 12:33:22;;;;;;;5.20;5.00;;;18.80;58.10;;;;;;5129043;27;44037;-71
2022/05/01 12:35:54;;;;;;;5.10;4.70;;;18.80;58.00;;;;;;5123925;27;43346;-71
2022/05/01 12:38:22;;;;;;;4.70;4.50;;;18.70;58.00;;;;;;5123158;27;43999;-71
2022/05/01 12:43:52;;;;;;;5.00;4.80;;;18.60;58.20;;;;;;5129703;27;43364;-72
2022/05/01 12:46:24;;;;;;;4.90;4.70;;;18.60;58.40;;;;;;5130020;27;43947;-71
2022/05/01 12:48:52;;;;;;;4.80;4.50;;;18.60;58.40;;;;;;5129956;27;43893;-71
2022/05/01 12:51:26;;;;;;;5.27;4.87;;;18.60;58.40;;;;;;5129508;27;43716;-71
2022/05/01 12:54:09;;;;;;;5.53;5.13;;;18.60;58.40;;;;;;5130060;27;43978;-72
2022/05/01 12:56:38;;;;;;;5.30;5.10;;;18.60;58.30;;;;;;5129430;27;44231;-72
2022/05/01 12:59:27;;;;;;;4.80;4.50;;;18.70;57.80;;;;;;5110676;27;45947;-72
2022/05/01 13:01:56;;;;;;;4.60;4.40;;;18.80;57.30;;;;;;5110596;27;44376;-72
2022/05/01 13:04:28;;;;;;;5.07;4.80;;;19.00;57.10;;;;;;5129375;27;43984;-70
2022/05/01 13:06:56;;;;;;;4.30;4.20;;;19.10;56.00;;;;;;5129591;27;43994;-72
2022/05/01 13:09:24;;;;;;;4.80;4.60;;;19.10;56.20;;;;;;5110517;27;45757;-72
2022/05/01 13:12:03;;;;;;;4.33;4.23;;;19.00;56.30;;;;;;5110962;27;45395;-72
2022/05/01 13:14:33;;;;;;;4.10;3.90;;;18.90;56.40;;;;;;5128440;27;44050;-71
2022/05/01 13:17:09;;;;;;;3.97;3.87;;;18.80;56.80;;;;;;5129390;27;43423;-71
2022/05/01 13:19:40;;;;;;;4.80;3.83;;;18.80;57.60;;;;;;5128555;27;43937;-72
2022/05/01 13:22:08;;;;;;;4.40;4.10;;;18.70;57.30;;;;;;5129008;27;43970;-71
2022/05/01 13:24:37;;;;;;;4.27;4.07;;;18.70;57.60;;;;;;5110235;27;43942;-71
2022/05/01 13:27:10;;;;;;;4.00;3.90;;;18.60;57.60;;;;;;5110698;27;43979;-71
2022/05/01 13:29:41;;;;;;;3.97;3.87;;;18.60;57.70;;;;;;5128509;27;45066;-71
2022/05/01 13:32:10;;;;;;;4.70;4.40;;;18.60;57.80;;;;;;5128849;27;44052;-70
2022/05/01 13:34:42;;;;;;;7.80;4.40;;;18.70;57.90;;;;;;5109710;27;44032;-72